TAP35MT LPPR-LPPT
Flight info
| Callsign | TAP35MT |
|---|---|
| Flight time | N/A |
| Altitude | 31000 |
| Route | MANIK DCT ABRIL DCT XAMAX |
| Aircraft | A21N/M-SDE2E3FGHIRWXY/LB1 |
Departure
| Time | 2026-05-03 21:44 |
|---|---|
| Airport | Francisco de Sá Carneiro Airport (LPPR) |
Arrival
| Time | N/A |
|---|---|
| Airport | Lisbon Humberto Delgado Airport (LPPT) |
| Time | Latitude | Longitude | Altitude | Speed | Heading |
|---|---|---|---|---|---|
| 2026-05-03 21:11 | 41.23640 | -8.67242 | 235 ft | 0 kts | 79° |
| 2026-05-03 21:25 | 41.23639 | -8.67250 | 235 ft | 2 kts | 79° |
| 2026-05-03 21:25 | 41.23636 | -8.67269 | 235 ft | 2 kts | 79° |
| 2026-05-03 21:26 | 41.23633 | -8.67289 | 235 ft | 2 kts | 79° |
| 2026-05-03 21:26 | 41.23631 | -8.67309 | 235 ft | 2 kts | 103° |
| 2026-05-03 21:26 | 41.23638 | -8.67327 | 235 ft | 2 kts | 135° |
| 2026-05-03 21:26 | 41.23650 | -8.67337 | 235 ft | 0 kts | 164° |
| 2026-05-03 21:27 | 41.23656 | -8.67339 | 235 ft | 1 kts | 170° |
| 2026-05-03 21:27 | 41.23658 | -8.67339 | 235 ft | 0 kts | 168° |
| 2026-05-03 21:40 | 41.23657 | -8.67339 | 235 ft | 0 kts | 168° |
| 2026-05-03 21:40 | 41.23649 | -8.67337 | 235 ft | 1 kts | 168° |
| 2026-05-03 21:41 | 41.23630 | -8.67332 | 235 ft | 4 kts | 171° |
| 2026-05-03 21:41 | 41.23590 | -8.67340 | 235 ft | 7 kts | 206° |
| 2026-05-03 21:41 | 41.23534 | -8.67377 | 235 ft | 9 kts | 206° |
| 2026-05-03 21:41 | 41.23466 | -8.67381 | 235 ft | 10 kts | 172° |
| 2026-05-03 21:42 | 41.23392 | -8.67366 | 235 ft | 10 kts | 179° |
| 2026-05-03 21:42 | 41.23336 | -8.67421 | 235 ft | 9 kts | 240° |
| 2026-05-03 21:42 | 41.23323 | -8.67497 | 234 ft | 7 kts | 260° |
| 2026-05-03 21:42 | 41.23312 | -8.67568 | 235 ft | 8 kts | 258° |
| 2026-05-03 21:43 | 41.23301 | -8.67644 | 235 ft | 7 kts | 259° |
| 2026-05-03 21:43 | 41.23309 | -8.67714 | 235 ft | 8 kts | 307° |
| 2026-05-03 21:43 | 41.23376 | -8.67751 | 235 ft | 26 kts | 349° |
| 2026-05-03 21:43 | 41.23826 | -8.67867 | 235 ft | 102 kts | 348° |
| 2026-05-03 21:44 | 41.24754 | -8.68110 | 264 ft | 159 kts | 348° |
| 2026-05-03 21:44 | 41.25867 | -8.68403 | 764 ft | 166 kts | 348° |
| 2026-05-03 21:44 | 41.26979 | -8.68726 | 1394 ft | 164 kts | 346° |
| 2026-05-03 21:44 | 41.28079 | -8.69083 | 2006 ft | 161 kts | 345° |
| 2026-05-03 21:45 | 41.29156 | -8.69472 | 2578 ft | 160 kts | 343° |
| 2026-05-03 21:45 | 41.30122 | -8.69854 | 2675 ft | 139 kts | 342° |
| 2026-05-03 21:45 | 41.31056 | -8.70261 | 2447 ft | 135 kts | 341° |
| 2026-05-03 21:45 | 41.31938 | -8.70679 | 2077 ft | 135 kts | 341° |
| 2026-05-03 21:46 | 41.32887 | -8.70930 | 1845 ft | 145 kts | 359° |
| 2026-05-03 21:46 | 41.33866 | -8.70607 | 1933 ft | 146 kts | 30° |
| 2026-05-03 21:46 | 41.34526 | -8.69584 | 2020 ft | 150 kts | 68° |
| 2026-05-03 21:46 | 41.34513 | -8.68214 | 2037 ft | 158 kts | 112° |
| 2026-05-03 21:47 | 41.33778 | -8.67107 | 2070 ft | 162 kts | 140° |
| 2026-05-03 21:47 | 41.32822 | -8.66227 | 2178 ft | 170 kts | 149° |
| 2026-05-03 21:47 | 41.31804 | -8.65530 | 2290 ft | 162 kts | 154° |
| 2026-05-03 21:47 | 41.30775 | -8.64924 | 2301 ft | 161 kts | 157° |
| 2026-05-03 21:48 | 41.29662 | -8.64392 | 2351 ft | 174 kts | 164° |
| 2026-05-03 21:48 | 41.28527 | -8.63985 | 2354 ft | 167 kts | 162° |
| 2026-05-03 21:48 | 41.27414 | -8.63465 | 2257 ft | 177 kts | 160° |
| 2026-05-03 21:48 | 41.26230 | -8.62921 | 2388 ft | 179 kts | 161° |
| 2026-05-03 21:49 | 41.25017 | -8.62408 | 2453 ft | 186 kts | 162° |
| 2026-05-03 21:49 | 41.23749 | -8.61902 | 2372 ft | 192 kts | 163° |
| 2026-05-03 21:49 | 41.22434 | -8.61326 | 2194 ft | 212 kts | 160° |
| 2026-05-03 21:49 | 41.21023 | -8.60650 | 2104 ft | 204 kts | 160° |
| 2026-05-03 21:50 | 41.19722 | -8.60003 | 1881 ft | 197 kts | 159° |
| 2026-05-03 21:50 | 41.18445 | -8.59345 | 1613 ft | 193 kts | 159° |
| 2026-05-03 21:50 | 41.17186 | -8.58777 | 1336 ft | 190 kts | 163° |
| 2026-05-03 21:50 | 41.15934 | -8.58358 | 1222 ft | 173 kts | 169° |
| 2026-05-03 21:51 | 41.14749 | -8.58084 | 1550 ft | 182 kts | 171° |
| 2026-05-03 21:51 | 41.13444 | -8.57804 | 2174 ft | 195 kts | 171° |
| 2026-05-03 21:51 | 41.12104 | -8.57546 | 2923 ft | 195 kts | 176° |
| 2026-05-03 21:51 | 41.10807 | -8.57516 | 3737 ft | 184 kts | 182° |
| 2026-05-03 21:52 | 41.09529 | -8.57563 | 4381 ft | 183 kts | 182° |
| 2026-05-03 21:52 | 41.08262 | -8.57595 | 4933 ft | 185 kts | 181° |
| 2026-05-03 21:52 | 41.06974 | -8.57599 | 5480 ft | 187 kts | 181° |
| 2026-05-03 21:52 | 41.05637 | -8.57581 | 5904 ft | 200 kts | 180° |
| 2026-05-03 21:53 | 41.04178 | -8.57546 | 6321 ft | 217 kts | 180° |
| 2026-05-03 21:53 | 41.02602 | -8.57495 | 6735 ft | 233 kts | 180° |
| 2026-05-03 21:53 | 41.00909 | -8.57435 | 7081 ft | 254 kts | 180° |
| 2026-05-03 21:53 | 40.99096 | -8.57366 | 7688 ft | 264 kts | 180° |